Montpelier, North Dakota
Current Conditions -  °F | °C
As of 3:56 PM on Tuesday 21 Oct 2014 (Local Time) from KJMS Reporting Station
Clear Clear  
Wind Chill: 75°   Ceiling: Unl
Heat Index: 75°   Visibility: 10mi
Dew Point: 43°   Wind: 20mph
Humidity: 32%   Direction: 160°SSE
Pressure: 29.78"   Gusts: 30mph
Location:  46.7°N, 98.59°W
Report Text: KJMS 212056Z AUTO 16017G26KT 10SM CLR 24/06 A2978 RMK AO2 PK WND 15029/2022 SLP083 T02390061 56018
Loading
Personal Weather Stations






























Interactive Weather Map
Tropical Storm Tracking
New forecast layout! Learn more

10-Day Weather Forecast

Advertisements
Track Severe Weather on mobile